createdAt,value
2023-12-23T00:01:07.241Z,0.50
2023-12-23T00:03:35.150Z,0.50
2023-12-23T00:06:04.512Z,0.35
2023-12-23T00:08:32.365Z,0.20
2023-12-23T00:11:00.249Z,0.40
2023-12-23T00:13:28.138Z,0.40
2023-12-23T00:15:55.960Z,0.30
2023-12-23T00:18:23.881Z,0.60
2023-12-23T00:20:51.983Z,0.60
2023-12-23T00:23:21.226Z,0.45
2023-12-23T00:25:49.049Z,0.40
2023-12-23T00:28:16.944Z,0.93
2023-12-23T00:30:44.894Z,0.50
2023-12-23T00:33:12.896Z,0.43
2023-12-23T00:35:42.511Z,0.47
2023-12-23T00:38:10.374Z,0.75
2023-12-23T00:40:39.524Z,0.30
2023-12-23T00:43:07.406Z,0.20
2023-12-23T00:45:35.213Z,0.30
2023-12-23T00:48:03.124Z,0.50
2023-12-23T00:50:31.019Z,0.30
2023-12-23T00:53:01.781Z,0.30
2023-12-23T00:55:29.638Z,0.38
2023-12-23T00:57:58.760Z,0.30
2023-12-23T01:00:26.557Z,0.30
2023-12-23T01:02:54.360Z,0.32
2023-12-23T01:05:22.239Z,0.30
2023-12-23T01:07:50.353Z,0.30
2023-12-23T01:10:23.108Z,0.45
2023-12-23T01:12:50.947Z,0.30
2023-12-23T01:15:20.127Z,0.22
2023-12-23T01:17:48.538Z,0.60
2023-12-23T01:20:16.765Z,0.77
2023-12-23T01:22:44.699Z,0.40
2023-12-23T01:25:12.562Z,0.65
2023-12-23T01:27:40.526Z,0.45
2023-12-23T01:30:09.519Z,0.45
2023-12-23T01:32:38.758Z,0.40
2023-12-23T01:35:07.266Z,0.40
2023-12-23T01:37:35.194Z,1.08
2023-12-23T01:40:03.503Z,0.40
2023-12-23T01:42:31.351Z,0.20
2023-12-23T01:44:59.155Z,0.30
2023-12-23T01:47:27.085Z,0.38
2023-12-23T01:49:57.366Z,1.23
2023-12-23T01:52:25.892Z,0.40
2023-12-23T01:54:53.732Z,0.35
2023-12-23T01:57:21.546Z,0.40
2023-12-23T01:59:51.409Z,0.30
2023-12-23T02:02:19.508Z,0.30
2023-12-23T02:04:48.493Z,0.57
2023-12-23T02:07:18.269Z,0.40
2023-12-23T02:09:46.110Z,0.32
2023-12-23T02:12:24.453Z,0.20
2023-12-23T02:15:02.817Z,0.47
2023-12-23T02:17:30.678Z,0.40
2023-12-23T02:19:58.769Z,0.43
2023-12-23T02:22:28.010Z,0.30
2023-12-23T02:24:55.880Z,0.30
2023-12-23T02:27:28.880Z,0.40
2023-12-23T02:29:57.870Z,0.40
2023-12-23T02:32:26.914Z,0.20
2023-12-23T02:34:55.930Z,0.32
2023-12-23T02:37:23.789Z,0.50
2023-12-23T02:39:53.068Z,0.60
2023-12-23T02:42:20.867Z,0.60
2023-12-23T02:44:49.571Z,0.20
2023-12-23T02:47:17.489Z,0.30
2023-12-23T02:49:45.334Z,0.30
2023-12-23T02:52:13.155Z,0.63
2023-12-23T02:54:41.013Z,0.77
2023-12-23T02:57:10.204Z,0.35
2023-12-23T02:59:38.008Z,0.88
2023-12-23T03:02:06.088Z,0.40
2023-12-23T03:04:34.818Z,0.22
2023-12-23T03:07:02.664Z,0.57
2023-12-23T03:09:30.508Z,0.40
2023-12-23T03:11:58.729Z,0.63
2023-12-23T03:14:27.932Z,0.40
2023-12-23T03:16:56.371Z,0.50
2023-12-23T03:19:24.230Z,0.50
2023-12-23T03:21:52.074Z,0.50
2023-12-23T03:24:20.107Z,0.47
2023-12-23T03:26:47.959Z,0.77
2023-12-23T03:29:16.028Z,0.45
2023-12-23T03:31:45.283Z,0.63
2023-12-23T03:34:13.228Z,0.80
2023-12-23T03:36:41.038Z,0.88
2023-12-23T03:39:09.445Z,0.43
2023-12-23T03:41:37.293Z,0.38
2023-12-23T03:44:05.296Z,0.65
2023-12-23T03:46:33.960Z,1.00
2023-12-23T03:49:03.252Z,0.73
2023-12-23T03:51:31.079Z,1.52
2023-12-23T03:53:59.032Z,0.60
2023-12-23T03:56:27.584Z,0.50
2023-12-23T03:58:56.108Z,0.80
2023-12-23T04:01:23.960Z,1.45
2023-12-23T04:03:52.150Z,0.68
2023-12-23T04:06:21.361Z,0.50
2023-12-23T04:08:49.242Z,0.40
2023-12-23T04:11:17.236Z,0.60
2023-12-23T04:13:45.111Z,0.60
2023-12-23T04:16:15.581Z,0.50
2023-12-23T04:18:43.704Z,0.40
2023-12-23T04:21:12.118Z,0.63
2023-12-23T04:23:42.196Z,0.40
2023-12-23T04:26:12.107Z,0.57
2023-12-23T04:28:40.332Z,0.57
2023-12-23T04:31:08.561Z,0.52
2023-12-23T04:33:36.624Z,1.00
2023-12-23T04:36:05.641Z,0.40
2023-12-23T04:38:36.311Z,0.70
2023-12-23T04:41:05.943Z,0.40
2023-12-23T04:43:37.052Z,0.40
2023-12-23T04:46:05.266Z,0.70
2023-12-23T04:48:33.162Z,0.88
2023-12-23T04:51:01.495Z,1.23
2023-12-23T04:53:29.629Z,0.70
2023-12-23T04:55:57.985Z,0.80
2023-12-23T04:58:27.410Z,0.47
2023-12-23T05:00:55.588Z,0.47
2023-12-23T05:03:23.515Z,0.63
2023-12-23T05:05:52.032Z,0.77
2023-12-23T05:08:20.030Z,0.60
2023-12-23T05:10:47.936Z,1.00
2023-12-23T05:13:16.742Z,0.80
2023-12-23T05:15:45.963Z,0.80
2023-12-23T05:18:14.403Z,0.47
2023-12-23T05:20:42.505Z,1.08
2023-12-23T05:23:10.444Z,0.68
2023-12-23T05:25:38.393Z,0.90
2023-12-23T05:28:08.890Z,0.82
2023-12-23T05:30:37.508Z,1.20
2023-12-23T05:33:07.134Z,0.90
2023-12-23T05:35:34.994Z,0.77
2023-12-23T05:38:04.624Z,0.70
2023-12-23T05:40:32.971Z,0.75
2023-12-23T05:43:04.033Z,0.90
2023-12-23T05:45:31.875Z,0.50
2023-12-23T05:47:59.749Z,0.85
2023-12-23T05:50:28.939Z,0.40
2023-12-23T05:52:56.791Z,0.65
2023-12-23T05:55:24.697Z,0.40
2023-12-23T05:57:52.539Z,0.50
2023-12-23T06:00:21.297Z,0.32
2023-12-23T06:02:49.302Z,0.70
2023-12-23T06:05:17.498Z,0.60
2023-12-23T06:07:46.855Z,0.40
2023-12-23T06:10:14.718Z,0.50
2023-12-23T06:12:42.530Z,0.50
2023-12-23T06:15:11.128Z,0.50
2023-12-23T06:17:39.110Z,0.40
2023-12-23T06:20:07.987Z,0.52
2023-12-23T06:22:36.194Z,1.00
2023-12-23T06:25:06.342Z,0.82
2023-12-23T06:27:34.113Z,1.90
2023-12-23T06:30:02.013Z,3.72
2023-12-23T06:32:30.155Z,0.60
2023-12-23T06:34:58.143Z,0.68
2023-12-23T06:37:25.951Z,0.70
2023-12-23T06:39:53.814Z,0.60
2023-12-23T06:42:22.942Z,0.40
2023-12-23T06:44:50.751Z,0.90
2023-12-23T06:47:18.573Z,0.47
2023-12-23T06:49:46.799Z,0.50
2023-12-23T06:52:14.761Z,0.50
2023-12-23T06:54:42.635Z,0.80
2023-12-23T06:57:11.170Z,0.65
2023-12-23T06:59:40.280Z,0.47
2023-12-23T07:02:08.327Z,0.40
2023-12-23T07:04:36.287Z,0.80
2023-12-23T07:07:04.235Z,0.60
2023-12-23T07:09:32.143Z,0.70
2023-12-23T07:11:59.990Z,0.60
2023-12-23T07:14:27.852Z,0.22
2023-12-23T07:16:57.076Z,0.40
2023-12-23T07:19:24.981Z,1.15
2023-12-23T07:21:54.595Z,0.40
2023-12-23T07:24:22.647Z,0.68
2023-12-23T07:26:50.659Z,0.40
2023-12-23T07:29:19.043Z,0.40
2023-12-23T07:31:47.505Z,0.45
2023-12-23T07:34:16.727Z,0.30
2023-12-23T07:36:44.757Z,0.30
2023-12-23T07:39:12.552Z,0.52
2023-12-23T07:41:40.318Z,0.50
2023-12-23T07:44:08.134Z,0.45
2023-12-23T07:46:35.995Z,0.77
2023-12-23T07:49:04.260Z,0.50
2023-12-23T07:51:33.496Z,0.60
2023-12-23T07:54:01.411Z,0.47
2023-12-23T07:56:29.330Z,0.50
2023-12-23T07:58:58.930Z,0.40
2023-12-23T08:01:26.884Z,0.30
2023-12-23T08:03:57.388Z,0.82
2023-12-23T08:06:25.627Z,0.57
2023-12-23T08:08:54.802Z,0.20
2023-12-23T08:11:23.779Z,0.30
2023-12-23T08:13:52.028Z,0.30
2023-12-23T08:16:20.005Z,0.30
2023-12-23T08:18:48.038Z,0.20
2023-12-23T08:21:16.235Z,0.22
2023-12-23T08:23:44.055Z,0.30
2023-12-23T08:26:13.199Z,0.45
2023-12-23T08:28:41.545Z,0.35
2023-12-23T08:31:10.043Z,0.30
2023-12-23T08:33:37.954Z,0.28
2023-12-23T08:36:06.283Z,0.30
2023-12-23T08:38:34.142Z,0.30
2023-12-23T08:41:02.114Z,0.20
2023-12-23T08:43:31.315Z,0.30
2023-12-23T08:46:00.134Z,0.40
2023-12-23T08:48:29.132Z,0.55
2023-12-23T08:50:57.033Z,0.20
2023-12-23T08:53:24.982Z,0.20
2023-12-23T08:55:52.936Z,0.30
2023-12-23T08:58:20.753Z,0.47
2023-12-23T09:00:49.940Z,0.30
2023-12-23T09:03:17.855Z,0.57
2023-12-23T09:05:45.979Z,0.60
2023-12-23T09:08:14.620Z,0.60
2023-12-23T09:10:42.685Z,0.73
2023-12-23T09:13:10.497Z,1.20
2023-12-23T09:15:39.918Z,0.65
2023-12-23T09:18:09.369Z,0.70
2023-12-23T09:20:37.274Z,0.60
2023-12-23T09:23:05.128Z,0.50
2023-12-23T09:25:33.054Z,0.50
2023-12-23T09:28:00.864Z,0.70
2023-12-23T09:30:28.696Z,0.68
2023-12-23T09:32:57.539Z,0.70
2023-12-23T09:35:26.843Z,0.68
2023-12-23T09:37:54.883Z,0.45
2023-12-23T09:40:22.898Z,0.80
2023-12-23T09:42:52.023Z,0.68
2023-12-23T09:45:21.709Z,0.80
2023-12-23T09:47:50.255Z,7.13
2023-12-23T09:50:18.385Z,1.38
2023-12-23T09:52:52.208Z,1.67
2023-12-23T09:55:20.792Z,2.60
2023-12-23T09:57:48.799Z,2.35
2023-12-23T10:00:17.423Z,2.05
2023-12-23T10:02:45.294Z,1.98
2023-12-23T10:05:14.440Z,1.90
2023-12-23T10:07:42.278Z,1.83
2023-12-23T10:10:13.259Z,2.28
2023-12-23T10:12:41.078Z,2.80
2023-12-23T10:15:08.886Z,2.33
2023-12-23T10:17:38.065Z,3.88
2023-12-23T10:20:06.975Z,1.80
2023-12-23T10:22:34.898Z,0.90
2023-12-23T10:25:02.921Z,0.63
2023-12-23T10:27:34.745Z,0.50
2023-12-23T10:30:06.942Z,0.57
2023-12-23T10:32:37.936Z,0.38
2023-12-23T10:35:09.525Z,0.45
2023-12-23T10:37:41.584Z,0.40
2023-12-23T10:40:15.401Z,0.50
2023-12-23T10:42:47.055Z,0.35
2023-12-23T10:45:15.195Z,0.30
2023-12-23T10:47:45.437Z,0.20
2023-12-23T10:50:14.374Z,0.40
2023-12-23T10:52:43.599Z,0.52
2023-12-23T10:55:12.387Z,0.55
2023-12-23T10:57:42.804Z,0.30
2023-12-23T11:00:12.816Z,0.40
2023-12-23T11:02:42.267Z,0.70
2023-12-23T11:05:13.072Z,0.73
2023-12-23T11:07:45.584Z,0.30
2023-12-23T11:10:15.295Z,0.70
2023-12-23T11:12:44.561Z,0.22
2023-12-23T11:15:14.232Z,0.50
2023-12-23T11:17:45.061Z,0.32
2023-12-23T11:20:46.402Z,0.38
2023-12-23T11:23:36.679Z,0.75
2023-12-23T11:26:05.510Z,0.60
2023-12-23T11:28:38.579Z,0.75
2023-12-23T11:31:08.011Z,0.60
2023-12-23T11:33:37.868Z,1.00
2023-12-23T11:36:07.672Z,0.70
2023-12-23T11:38:48.011Z,1.05
2023-12-23T11:41:16.252Z,0.68
2023-12-23T11:43:46.272Z,0.50
2023-12-23T11:46:16.015Z,1.48
2023-12-23T11:48:43.853Z,1.20
2023-12-23T11:51:12.662Z,1.33
2023-12-23T11:53:42.175Z,0.90
2023-12-23T11:56:11.035Z,1.08
2023-12-23T11:58:40.017Z,2.10
2023-12-23T12:01:07.857Z,2.22
2023-12-23T12:03:36.994Z,1.13
2023-12-23T12:06:05.350Z,1.45
2023-12-23T12:08:33.345Z,0.65
2023-12-23T12:11:04.407Z,1.35
2023-12-23T12:13:32.497Z,2.90
2023-12-23T12:16:00.331Z,0.95
2023-12-23T12:18:28.257Z,1.15
2023-12-23T12:20:57.712Z,1.00
2023-12-23T12:23:25.726Z,1.20
2023-12-23T12:25:58.320Z,0.70
2023-12-23T12:28:27.546Z,0.52
2023-12-23T12:30:55.688Z,0.80
2023-12-23T12:33:23.734Z,0.63
2023-12-23T12:35:51.705Z,0.80
2023-12-23T12:38:24.136Z,1.20
2023-12-23T12:40:53.252Z,1.10
2023-12-23T12:43:22.831Z,1.58
2023-12-23T12:45:50.796Z,2.30
2023-12-23T12:48:18.707Z,1.92
2023-12-23T12:50:48.087Z,1.73
2023-12-23T12:53:17.328Z,1.48
2023-12-23T12:55:46.568Z,1.20
2023-12-23T12:58:15.037Z,1.63
2023-12-23T13:00:42.877Z,1.42
2023-12-23T13:03:11.298Z,1.85
2023-12-23T13:05:39.396Z,1.75
2023-12-23T13:08:08.280Z,1.35
2023-12-23T13:10:36.123Z,1.25
2023-12-23T13:13:05.473Z,0.93
2023-12-23T13:15:34.270Z,1.20
2023-12-23T13:18:02.262Z,0.95
2023-12-23T13:20:30.224Z,1.17
2023-12-23T13:22:58.152Z,1.17
2023-12-23T13:25:26.032Z,4.82
2023-12-23T13:27:53.854Z,1.00
2023-12-23T13:30:23.833Z,1.38
2023-12-23T13:32:52.608Z,0.70
2023-12-23T13:35:21.086Z,0.90
2023-12-23T13:37:49.017Z,0.88
2023-12-23T13:40:17.123Z,1.70
2023-12-23T13:42:44.937Z,0.80
2023-12-23T13:45:13.502Z,0.90
2023-12-23T13:47:43.208Z,0.60
2023-12-23T13:50:12.182Z,0.68
2023-12-23T13:52:41.221Z,1.75
2023-12-23T13:55:10.098Z,0.75
2023-12-23T13:57:38.006Z,1.58
2023-12-23T14:00:07.858Z,8.02
2023-12-23T14:02:35.973Z,1.02
2023-12-23T14:05:05.599Z,1.60
2023-12-23T14:07:33.423Z,1.38
2023-12-23T14:10:01.206Z,1.52
2023-12-23T14:12:29.058Z,2.85
2023-12-23T14:14:56.872Z,6.82
2023-12-23T14:17:24.726Z,2.38
2023-12-23T14:19:52.554Z,2.90
2023-12-23T14:22:21.725Z,2.45
2023-12-23T14:24:49.529Z,1.40
2023-12-23T14:27:17.373Z,0.60
2023-12-23T14:29:49.428Z,1.27
2023-12-23T14:32:18.689Z,0.80
2023-12-23T14:34:46.596Z,0.75
2023-12-23T14:37:14.451Z,2.13
2023-12-23T14:39:43.915Z,1.10
2023-12-23T14:42:12.107Z,0.40
2023-12-23T14:44:39.933Z,0.80
2023-12-23T14:47:07.849Z,1.30
2023-12-23T14:49:35.713Z,1.30
2023-12-23T14:52:03.513Z,1.25
2023-12-23T14:54:31.334Z,0.55
2023-12-23T14:57:00.464Z,0.80
2023-12-23T14:59:30.815Z,1.17
2023-12-23T15:01:59.296Z,0.80
2023-12-23T15:04:27.136Z,1.10
2023-12-23T15:06:55.006Z,1.30
2023-12-23T15:09:22.936Z,1.20
2023-12-23T15:11:50.778Z,0.68
2023-12-23T15:14:19.990Z,0.60
2023-12-23T15:16:47.868Z,0.85
2023-12-23T15:19:15.684Z,0.60
2023-12-23T15:21:43.500Z,0.50
2023-12-23T15:24:11.333Z,1.45
2023-12-23T15:26:39.235Z,1.05
2023-12-23T15:29:07.131Z,1.73
2023-12-23T15:31:36.237Z,1.88
2023-12-23T15:34:04.160Z,1.42
2023-12-23T15:36:32.048Z,1.45
2023-12-23T15:38:58.950Z,1.20
2023-12-23T15:41:26.850Z,1.27
2023-12-23T15:43:54.692Z,1.27
2023-12-23T15:46:23.315Z,2.13
2023-12-23T15:48:52.569Z,1.25
2023-12-23T15:51:21.119Z,1.75
2023-12-23T15:53:49.816Z,1.50
2023-12-23T15:56:17.776Z,1.08
2023-12-23T15:58:45.805Z,3.22
2023-12-23T16:01:13.806Z,4.32
2023-12-23T16:03:41.757Z,3.60
2023-12-23T16:06:18.068Z,2.72
2023-12-23T16:08:46.041Z,2.45
2023-12-23T16:11:14.011Z,1.70
2023-12-23T16:13:44.364Z,1.73
2023-12-23T16:16:12.222Z,3.42
2023-12-23T16:18:40.135Z,4.82
2023-12-23T16:21:08.008Z,8.57
2023-12-23T16:23:37.166Z,2.70
2023-12-23T16:26:05.483Z,5.00
2023-12-23T16:28:33.465Z,6.50
2023-12-23T16:31:01.317Z,6.60
2023-12-23T16:33:29.255Z,6.53
2023-12-23T16:35:57.153Z,7.35
2023-12-23T16:38:25.060Z,9.07
2023-12-23T16:40:55.626Z,11.05
2023-12-23T16:43:23.506Z,9.27
2023-12-23T16:45:51.359Z,6.72
2023-12-23T16:48:19.358Z,2.78
2023-12-23T16:50:47.254Z,2.78
2023-12-23T16:53:15.225Z,2.80
2023-12-23T16:55:43.040Z,2.72
2023-12-23T16:58:12.188Z,3.60
2023-12-23T17:00:40.139Z,2.30
2023-12-23T17:03:08.242Z,1.73
2023-12-23T17:05:36.246Z,0.90
2023-12-23T17:08:04.237Z,0.50
2023-12-23T17:10:32.035Z,0.47
2023-12-23T17:12:59.886Z,0.50
2023-12-23T17:15:29.031Z,0.50
2023-12-23T17:17:57.113Z,0.40
2023-12-23T17:20:24.996Z,0.43
2023-12-23T17:22:55.102Z,0.60
2023-12-23T17:25:23.385Z,0.60
2023-12-23T17:27:52.669Z,0.60
2023-12-23T17:30:20.777Z,0.50
2023-12-23T17:32:50.234Z,0.38
2023-12-23T17:35:18.291Z,0.30
2023-12-23T17:37:46.095Z,0.60
2023-12-23T17:40:13.882Z,0.60
2023-12-23T17:42:41.735Z,0.30
2023-12-23T17:45:11.538Z,0.40
2023-12-23T17:47:39.396Z,0.68
2023-12-23T17:50:10.867Z,0.30
2023-12-23T17:52:39.575Z,0.57
2023-12-23T17:55:07.908Z,0.47
2023-12-23T17:57:35.772Z,0.60
2023-12-23T18:00:04.232Z,0.60
2023-12-23T18:02:32.886Z,0.50
2023-12-23T18:05:01.846Z,0.70
2023-12-23T18:07:31.179Z,0.40
2023-12-23T18:09:59.134Z,0.70
2023-12-23T18:12:26.928Z,0.70
2023-12-23T18:14:54.733Z,0.68
2023-12-23T18:17:23.201Z,0.60
2023-12-23T18:19:51.129Z,0.50
2023-12-23T18:22:18.959Z,0.57
2023-12-23T18:24:48.110Z,0.38
2023-12-23T18:27:15.978Z,0.52
2023-12-23T18:29:43.833Z,0.45
2023-12-23T18:32:12.294Z,1.08
2023-12-23T18:34:40.175Z,0.50
2023-12-23T18:37:08.582Z,0.32
2023-12-23T18:39:37.016Z,0.40
2023-12-23T18:42:06.842Z,0.70
2023-12-23T18:44:34.694Z,0.90
2023-12-23T18:47:02.544Z,0.50
2023-12-23T18:49:30.339Z,0.65
2023-12-23T18:51:58.109Z,0.63
2023-12-23T18:54:25.923Z,0.50
2023-12-23T18:56:54.094Z,0.40
2023-12-23T18:59:23.199Z,0.50
2023-12-23T19:01:51.187Z,0.60
2023-12-23T19:04:19.163Z,0.50
2023-12-23T19:06:46.957Z,0.70
2023-12-23T19:09:14.820Z,0.50
2023-12-23T19:11:43.392Z,0.75
2023-12-23T19:14:11.267Z,0.50
2023-12-23T19:16:40.468Z,1.20
2023-12-23T19:19:08.402Z,0.82
2023-12-23T19:21:41.325Z,1.00
2023-12-23T19:24:09.322Z,0.65
2023-12-23T19:26:37.729Z,0.60
2023-12-23T19:29:05.649Z,0.57
2023-12-23T19:31:33.789Z,1.00
2023-12-23T19:34:04.851Z,1.42
2023-12-23T19:36:32.745Z,0.80
2023-12-23T19:39:00.656Z,0.63
2023-12-23T19:41:28.548Z,0.60
2023-12-23T19:43:56.485Z,1.02
2023-12-23T19:46:24.330Z,0.80
2023-12-23T19:48:52.252Z,0.60
2023-12-23T19:51:22.826Z,0.70
2023-12-23T19:53:51.923Z,0.55
2023-12-23T19:56:19.867Z,0.75
2023-12-23T19:58:47.765Z,1.08
2023-12-23T20:01:15.680Z,0.73
2023-12-23T20:03:43.652Z,1.02
2023-12-23T20:06:12.864Z,0.90
2023-12-23T20:08:42.771Z,1.27
2023-12-23T20:11:10.632Z,0.70
2023-12-23T20:13:40.056Z,0.43
2023-12-23T20:16:08.058Z,0.50
2023-12-23T20:18:37.339Z,0.35
2023-12-23T20:21:05.879Z,0.30
2023-12-23T20:23:33.763Z,0.50
2023-12-23T20:26:02.991Z,0.40
2023-12-23T20:28:30.789Z,0.30
2023-12-23T20:30:58.605Z,0.63
2023-12-23T20:33:26.490Z,0.43
2023-12-23T20:35:54.403Z,0.52
2023-12-23T20:38:23.667Z,0.35
2023-12-23T20:40:51.722Z,0.32
2023-12-23T20:43:21.009Z,0.30
2023-12-23T20:45:49.364Z,0.50
2023-12-23T20:48:18.212Z,0.32
2023-12-23T20:50:48.260Z,0.30
2023-12-23T20:53:16.970Z,0.30
2023-12-23T20:55:44.858Z,0.57
2023-12-23T20:58:12.921Z,0.50
2023-12-23T21:00:42.069Z,0.40
2023-12-23T21:03:10.032Z,0.30
2023-12-23T21:05:37.964Z,0.60
2023-12-23T21:08:06.522Z,0.38
2023-12-23T21:10:37.148Z,0.50
2023-12-23T21:13:05.558Z,0.50
2023-12-23T21:15:33.391Z,0.30
2023-12-23T21:18:02.738Z,0.50
2023-12-23T21:20:30.682Z,0.40
2023-12-23T21:22:58.614Z,0.20
2023-12-23T21:25:26.578Z,0.40
2023-12-23T21:27:54.413Z,0.30
2023-12-23T21:30:22.305Z,0.40
2023-12-23T21:32:51.124Z,0.30
2023-12-23T21:35:20.611Z,0.30
2023-12-23T21:37:48.451Z,0.35
2023-12-23T21:40:16.545Z,0.40
2023-12-23T21:42:44.424Z,0.50
2023-12-23T21:45:12.297Z,1.48
2023-12-23T21:47:44.867Z,0.40
2023-12-23T21:50:12.928Z,0.60
2023-12-23T21:52:45.845Z,0.63
2023-12-23T21:55:13.651Z,0.40
2023-12-23T21:57:42.630Z,0.38
2023-12-23T22:00:11.379Z,0.40
2023-12-23T22:02:41.838Z,0.50
2023-12-23T22:05:10.159Z,0.65
2023-12-23T22:07:38.086Z,0.70
2023-12-23T22:10:09.040Z,0.30
2023-12-23T22:12:36.882Z,0.60
2023-12-23T22:15:05.016Z,0.98
2023-12-23T22:17:33.804Z,0.50
2023-12-23T22:20:01.804Z,0.50
2023-12-23T22:22:30.146Z,0.70
2023-12-23T22:24:59.768Z,0.68
2023-12-23T22:27:28.908Z,0.45
2023-12-23T22:29:56.742Z,0.52
2023-12-23T22:32:24.731Z,0.47
2023-12-23T22:34:54.085Z,0.40
2023-12-23T22:37:22.219Z,0.68
2023-12-23T22:39:50.149Z,0.38
2023-12-23T22:42:18.088Z,0.45
2023-12-23T22:44:47.520Z,0.52
2023-12-23T22:47:15.324Z,0.60
2023-12-23T22:49:43.143Z,0.50
2023-12-23T22:52:10.945Z,0.40
2023-12-23T22:54:38.782Z,0.68
2023-12-23T22:57:07.649Z,0.52
2023-12-23T22:59:35.501Z,0.40
2023-12-23T23:02:05.085Z,0.70
2023-12-23T23:04:32.928Z,0.50
2023-12-23T23:07:00.737Z,0.73
2023-12-23T23:09:30.950Z,0.43
2023-12-23T23:11:59.205Z,0.70
2023-12-23T23:14:27.028Z,0.40
2023-12-23T23:16:54.904Z,0.43
2023-12-23T23:19:24.360Z,0.50
2023-12-23T23:21:52.245Z,0.40
2023-12-23T23:24:20.119Z,0.30
2023-12-23T23:26:48.521Z,0.60
2023-12-23T23:29:16.652Z,0.32
2023-12-23T23:31:44.453Z,0.50
2023-12-23T23:34:12.328Z,0.47
2023-12-23T23:36:41.503Z,0.50
2023-12-23T23:39:09.354Z,0.40
2023-12-23T23:41:37.359Z,0.47
2023-12-23T23:44:05.477Z,0.60
2023-12-23T23:46:33.442Z,0.30
2023-12-23T23:49:01.359Z,0.32
2023-12-23T23:51:29.186Z,0.50
2023-12-23T23:53:58.320Z,0.50
2023-12-23T23:56:26.130Z,0.50
2023-12-23T23:58:53.966Z,0.40
